Boulder, Montana
Current Conditions -  °F | °C
As of 11:53 PM on Sunday 21 Dec 2014 (Local Time) from KHLN Reporting Station
Clear Clear  
Wind Chill: 31°   Ceiling: Unl
Heat Index: 39°   Visibility: 10mi
Dew Point: 26°   Wind: 14mph
Humidity: 60%   Direction: 260°W
Pressure: 29.78"   Gusts: NA
Location:  46.24°N, 112.12°W
Report Text: KHLN 220653Z 26012KT 10SM CLR 04/M03 A2978 RMK AO2 PK WND 25027/0554 SLP108 T00391033 400720000
Loading
Personal Weather Stations






























Interactive Weather Map New forecast layout! Learn more

10-Day Weather Forecast

Advertisements
Track Severe Weather on mobile